Terminal Aerodrome Forecast
Issued by NWS Huntsville, AL

Home | Current Version | Previous Version | Text Only | Print | Product List | Glossary On
Versions: 1 2 3 4 5 6 7 8 9 10 11 12
000
FTUS44 KHUN 242320
TAFMSL
TAF
KMSL 242320Z 2500/2524 34007KT P6SM SCT250
     FM250200 VRB02KT P6SM FEW250
     FM251600 20005KT P6SM SCT040 SCT110 PROB30 2520/2524 4SM TSRA
      BKN025CB=

USA.gov is the U.S. government's official web portal to all federal, state and local government web resources and services.